sensor_id;sensor_type;location;lat;lon;timestamp;P1;durP1;ratioP1;P2;durP2;ratioP2
43919;SDS011;29578;51.946;5.874;2022-09-24T00:01:55;3.33;;;2.00;;
43919;SDS011;29578;51.946;5.874;2022-09-24T00:04:23;2.75;;;1.70;;
43919;SDS011;29578;51.946;5.874;2022-09-24T00:06:50;2.75;;;1.67;;
43919;SDS011;29578;51.946;5.874;2022-09-24T00:09:17;2.67;;;1.77;;
43919;SDS011;29578;51.946;5.874;2022-09-24T00:11:46;2.72;;;1.73;;
43919;SDS011;29578;51.946;5.874;2022-09-24T00:14:14;3.13;;;1.80;;
43919;SDS011;29578;51.946;5.874;2022-09-24T00:16:41;2.15;;;1.58;;
43919;SDS011;29578;51.946;5.874;2022-09-24T00:19:08;2.53;;;1.50;;
43919;SDS011;29578;51.946;5.874;2022-09-24T00:21:36;2.03;;;1.63;;
43919;SDS011;29578;51.946;5.874;2022-09-24T00:24:04;2.40;;;1.63;;
43919;SDS011;29578;51.946;5.874;2022-09-24T00:26:31;2.47;;;1.52;;
43919;SDS011;29578;51.946;5.874;2022-09-24T00:29:15;2.33;;;1.70;;
43919;SDS011;29578;51.946;5.874;2022-09-24T00:31:44;2.53;;;1.65;;
43919;SDS011;29578;51.946;5.874;2022-09-24T00:34:10;2.55;;;1.75;;
43919;SDS011;29578;51.946;5.874;2022-09-24T00:36:35;2.88;;;1.75;;
43919;SDS011;29578;51.946;5.874;2022-09-24T00:39:02;2.33;;;1.63;;
43919;SDS011;29578;51.946;5.874;2022-09-24T00:41:30;2.35;;;1.50;;
43919;SDS011;29578;51.946;5.874;2022-09-24T00:43:57;3.05;;;1.63;;
43919;SDS011;29578;51.946;5.874;2022-09-24T00:46:26;2.92;;;1.90;;
43919;SDS011;29578;51.946;5.874;2022-09-24T00:49:08;2.20;;;1.50;;
43919;SDS011;29578;51.946;5.874;2022-09-24T00:51:37;2.55;;;1.70;;
43919;SDS011;29578;51.946;5.874;2022-09-24T00:54:06;2.35;;;1.70;;
43919;SDS011;29578;51.946;5.874;2022-09-24T00:56:35;2.15;;;1.65;;
43919;SDS011;29578;51.946;5.874;2022-09-24T00:59:05;2.42;;;1.52;;
43919;SDS011;29578;51.946;5.874;2022-09-24T01:01:35;2.40;;;1.58;;
43919;SDS011;29578;51.946;5.874;2022-09-24T01:04:02;2.75;;;1.67;;
43919;SDS011;29578;51.946;5.874;2022-09-24T01:06:29;2.42;;;1.50;;
43919;SDS011;29578;51.946;5.874;2022-09-24T01:08:55;2.33;;;1.50;;
43919;SDS011;29578;51.946;5.874;2022-09-24T01:14:17;2.60;;;1.73;;
43919;SDS011;29578;51.946;5.874;2022-09-24T01:17:02;2.58;;;1.73;;
43919;SDS011;29578;51.946;5.874;2022-09-24T01:31:33;2.90;;;1.98;;
43919;SDS011;29578;51.946;5.874;2022-09-24T01:34:04;3.58;;;1.98;;
43919;SDS011;29578;51.946;5.874;2022-09-24T01:36:33;3.97;;;2.30;;
43919;SDS011;29578;51.946;5.874;2022-09-24T01:39:01;3.92;;;2.28;;
43919;SDS011;29578;51.946;5.874;2022-09-24T01:41:30;3.38;;;1.98;;
43919;SDS011;29578;51.946;5.874;2022-09-24T01:43:58;4.25;;;2.20;;
43919;SDS011;29578;51.946;5.874;2022-09-24T01:48:56;3.33;;;1.95;;
43919;SDS011;29578;51.946;5.874;2022-09-24T01:51:26;2.72;;;1.67;;
43919;SDS011;29578;51.946;5.874;2022-09-24T01:54:05;2.88;;;1.70;;
43919;SDS011;29578;51.946;5.874;2022-09-24T01:56:37;3.20;;;1.75;;
43919;SDS011;29578;51.946;5.874;2022-09-24T01:59:15;3.22;;;2.10;;
43919;SDS011;29578;51.946;5.874;2022-09-24T02:01:53;2.85;;;1.80;;
43919;SDS011;29578;51.946;5.874;2022-09-24T02:04:24;3.03;;;1.95;;
43919;SDS011;29578;51.946;5.874;2022-09-24T02:06:54;3.53;;;2.10;;
43919;SDS011;29578;51.946;5.874;2022-09-24T02:09:28;3.00;;;1.77;;
43919;SDS011;29578;51.946;5.874;2022-09-24T02:12:04;4.07;;;1.92;;
43919;SDS011;29578;51.946;5.874;2022-09-24T02:14:39;3.40;;;1.95;;
43919;SDS011;29578;51.946;5.874;2022-09-24T02:17:12;3.17;;;1.90;;
43919;SDS011;29578;51.946;5.874;2022-09-24T02:19:39;2.67;;;1.73;;
43919;SDS011;29578;51.946;5.874;2022-09-24T02:22:06;3.25;;;2.00;;
43919;SDS011;29578;51.946;5.874;2022-09-24T02:24:38;2.95;;;1.80;;
43919;SDS011;29578;51.946;5.874;2022-09-24T02:27:14;2.92;;;1.90;;
43919;SDS011;29578;51.946;5.874;2022-09-24T02:29:41;2.58;;;1.60;;
43919;SDS011;29578;51.946;5.874;2022-09-24T02:32:07;2.72;;;1.67;;
43919;SDS011;29578;51.946;5.874;2022-09-24T02:34:39;2.03;;;1.48;;
43919;SDS011;29578;51.946;5.874;2022-09-24T02:37:12;1.83;;;1.30;;
43919;SDS011;29578;51.946;5.874;2022-09-24T02:39:40;2.20;;;1.40;;
43919;SDS011;29578;51.946;5.874;2022-09-24T02:42:06;2.60;;;1.50;;
43919;SDS011;29578;51.946;5.874;2022-09-24T02:44:34;2.55;;;1.50;;
43919;SDS011;29578;51.946;5.874;2022-09-24T02:47:00;3.03;;;1.70;;
43919;SDS011;29578;51.946;5.874;2022-09-24T02:49:27;3.05;;;1.77;;
43919;SDS011;29578;51.946;5.874;2022-09-24T02:51:53;2.90;;;1.60;;
43919;SDS011;29578;51.946;5.874;2022-09-24T02:54:19;2.30;;;1.60;;
43919;SDS011;29578;51.946;5.874;2022-09-24T02:56:46;3.22;;;1.90;;
43919;SDS011;29578;51.946;5.874;2022-09-24T02:59:13;2.33;;;1.63;;
43919;SDS011;29578;51.946;5.874;2022-09-24T03:01:39;2.88;;;1.90;;
43919;SDS011;29578;51.946;5.874;2022-09-24T03:04:05;2.55;;;1.67;;
43919;SDS011;29578;51.946;5.874;2022-09-24T03:06:30;2.58;;;1.60;;
43919;SDS011;29578;51.946;5.874;2022-09-24T03:08:56;2.80;;;1.77;;
43919;SDS011;29578;51.946;5.874;2022-09-24T03:11:23;3.30;;;1.70;;
43919;SDS011;29578;51.946;5.874;2022-09-24T03:13:49;2.25;;;1.55;;
43919;SDS011;29578;51.946;5.874;2022-09-24T03:16:15;2.55;;;1.60;;
43919;SDS011;29578;51.946;5.874;2022-09-24T03:18:41;2.40;;;1.50;;
43919;SDS011;29578;51.946;5.874;2022-09-24T03:21:09;3.05;;;1.90;;
43919;SDS011;29578;51.946;5.874;2022-09-24T03:23:36;2.55;;;1.63;;
43919;SDS011;29578;51.946;5.874;2022-09-24T03:26:02;2.70;;;1.58;;
43919;SDS011;29578;51.946;5.874;2022-09-24T03:28:28;3.28;;;1.60;;
43919;SDS011;29578;51.946;5.874;2022-09-24T03:30:54;2.03;;;1.40;;
43919;SDS011;29578;51.946;5.874;2022-09-24T03:33:28;2.78;;;1.60;;
43919;SDS011;29578;51.946;5.874;2022-09-24T03:35:57;2.95;;;1.67;;
43919;SDS011;29578;51.946;5.874;2022-09-24T03:38:25;2.42;;;1.40;;
43919;SDS011;29578;51.946;5.874;2022-09-24T03:40:51;3.30;;;1.70;;
43919;SDS011;29578;51.946;5.874;2022-09-24T03:43:17;2.67;;;1.77;;
43919;SDS011;29578;51.946;5.874;2022-09-24T03:45:43;2.58;;;1.45;;
43919;SDS011;29578;51.946;5.874;2022-09-24T03:48:09;2.08;;;1.40;;
43919;SDS011;29578;51.946;5.874;2022-09-24T03:50:35;2.00;;;1.40;;
43919;SDS011;29578;51.946;5.874;2022-09-24T03:53:01;2.42;;;1.45;;
43919;SDS011;29578;51.946;5.874;2022-09-24T03:55:27;2.25;;;1.42;;
43919;SDS011;29578;51.946;5.874;2022-09-24T03:57:53;2.05;;;1.27;;
43919;SDS011;29578;51.946;5.874;2022-09-24T04:00:19;1.70;;;1.25;;
43919;SDS011;29578;51.946;5.874;2022-09-24T04:02:46;2.55;;;1.60;;
43919;SDS011;29578;51.946;5.874;2022-09-24T04:05:12;2.10;;;1.40;;
43919;SDS011;29578;51.946;5.874;2022-09-24T04:07:37;2.20;;;1.33;;
43919;SDS011;29578;51.946;5.874;2022-09-24T04:10:03;1.98;;;1.48;;
43919;SDS011;29578;51.946;5.874;2022-09-24T04:12:29;2.40;;;1.75;;
43919;SDS011;29578;51.946;5.874;2022-09-24T04:14:55;2.58;;;1.50;;
43919;SDS011;29578;51.946;5.874;2022-09-24T04:17:21;2.85;;;1.65;;
43919;SDS011;29578;51.946;5.874;2022-09-24T04:19:47;2.20;;;1.42;;
43919;SDS011;29578;51.946;5.874;2022-09-24T04:22:12;2.63;;;1.75;;
43919;SDS011;29578;51.946;5.874;2022-09-24T04:24:38;2.17;;;1.55;;
43919;SDS011;29578;51.946;5.874;2022-09-24T04:27:04;2.45;;;1.52;;
43919;SDS011;29578;51.946;5.874;2022-09-24T04:29:30;2.15;;;1.40;;
43919;SDS011;29578;51.946;5.874;2022-09-24T04:31:56;2.95;;;1.85;;
43919;SDS011;29578;51.946;5.874;2022-09-24T04:34:24;2.80;;;1.60;;
43919;SDS011;29578;51.946;5.874;2022-09-24T04:36:50;2.35;;;1.60;;
43919;SDS011;29578;51.946;5.874;2022-09-24T04:39:16;2.70;;;1.67;;
43919;SDS011;29578;51.946;5.874;2022-09-24T04:41:42;3.00;;;1.70;;
43919;SDS011;29578;51.946;5.874;2022-09-24T04:44:07;2.45;;;1.60;;
43919;SDS011;29578;51.946;5.874;2022-09-24T04:46:35;2.35;;;1.60;;
43919;SDS011;29578;51.946;5.874;2022-09-24T04:49:00;2.63;;;1.60;;
43919;SDS011;29578;51.946;5.874;2022-09-24T04:51:26;3.13;;;1.90;;
43919;SDS011;29578;51.946;5.874;2022-09-24T04:53:52;3.05;;;1.70;;
43919;SDS011;29578;51.946;5.874;2022-09-24T04:56:18;2.28;;;1.50;;
43919;SDS011;29578;51.946;5.874;2022-09-24T04:58:48;3.17;;;1.30;;
43919;SDS011;29578;51.946;5.874;2022-09-24T05:01:14;3.13;;;1.80;;
43919;SDS011;29578;51.946;5.874;2022-09-24T05:03:40;2.15;;;1.55;;
43919;SDS011;29578;51.946;5.874;2022-09-24T05:06:06;2.45;;;1.67;;
43919;SDS011;29578;51.946;5.874;2022-09-24T05:08:31;2.45;;;1.70;;
43919;SDS011;29578;51.946;5.874;2022-09-24T05:10:57;2.50;;;1.77;;
43919;SDS011;29578;51.946;5.874;2022-09-24T05:13:24;3.10;;;1.80;;
43919;SDS011;29578;51.946;5.874;2022-09-24T05:15:50;3.20;;;2.20;;
43919;SDS011;29578;51.946;5.874;2022-09-24T05:18:15;3.67;;;2.10;;
43919;SDS011;29578;51.946;5.874;2022-09-24T05:20:41;3.42;;;2.05;;
43919;SDS011;29578;51.946;5.874;2022-09-24T05:23:07;3.22;;;1.85;;
43919;SDS011;29578;51.946;5.874;2022-09-24T05:25:33;3.40;;;2.00;;
43919;SDS011;29578;51.946;5.874;2022-09-24T05:28:18;2.83;;;2.00;;
43919;SDS011;29578;51.946;5.874;2022-09-24T05:30:45;2.85;;;1.80;;
43919;SDS011;29578;51.946;5.874;2022-09-24T05:33:11;3.38;;;1.80;;
43919;SDS011;29578;51.946;5.874;2022-09-24T05:35:37;3.05;;;1.85;;
43919;SDS011;29578;51.946;5.874;2022-09-24T05:38:03;3.53;;;2.10;;
43919;SDS011;29578;51.946;5.874;2022-09-24T05:40:29;3.85;;;2.30;;
43919;SDS011;29578;51.946;5.874;2022-09-24T05:43:14;3.92;;;2.17;;
43919;SDS011;29578;51.946;5.874;2022-09-24T05:45:43;3.78;;;2.13;;
43919;SDS011;29578;51.946;5.874;2022-09-24T05:48:10;3.13;;;2.08;;
43919;SDS011;29578;51.946;5.874;2022-09-24T05:50:36;3.25;;;1.98;;
43919;SDS011;29578;51.946;5.874;2022-09-24T05:53:03;3.67;;;2.13;;
43919;SDS011;29578;51.946;5.874;2022-09-24T05:55:30;2.92;;;2.00;;
43919;SDS011;29578;51.946;5.874;2022-09-24T05:58:04;2.90;;;1.88;;
43919;SDS011;29578;51.946;5.874;2022-09-24T06:00:31;2.92;;;1.83;;
43919;SDS011;29578;51.946;5.874;2022-09-24T06:03:02;2.97;;;1.90;;
43919;SDS011;29578;51.946;5.874;2022-09-24T06:05:29;3.53;;;2.00;;
43919;SDS011;29578;51.946;5.874;2022-09-24T06:07:55;3.25;;;1.95;;
43919;SDS011;29578;51.946;5.874;2022-09-24T06:10:24;2.78;;;1.80;;
43919;SDS011;29578;51.946;5.874;2022-09-24T06:12:51;3.53;;;2.20;;
43919;SDS011;29578;51.946;5.874;2022-09-24T06:15:17;3.15;;;1.88;;
43919;SDS011;29578;51.946;5.874;2022-09-24T06:17:44;2.20;;;1.52;;
43919;SDS011;29578;51.946;5.874;2022-09-24T06:20:10;2.85;;;1.80;;
43919;SDS011;29578;51.946;5.874;2022-09-24T06:22:36;3.25;;;1.90;;
43919;SDS011;29578;51.946;5.874;2022-09-24T06:25:02;2.67;;;1.55;;
43919;SDS011;29578;51.946;5.874;2022-09-24T06:27:28;2.10;;;1.58;;
43919;SDS011;29578;51.946;5.874;2022-09-24T06:29:54;3.15;;;1.90;;
43919;SDS011;29578;51.946;5.874;2022-09-24T06:32:19;3.67;;;2.20;;
43919;SDS011;29578;51.946;5.874;2022-09-24T06:34:48;2.03;;;1.63;;
43919;SDS011;29578;51.946;5.874;2022-09-24T06:37:13;2.40;;;1.67;;
43919;SDS011;29578;51.946;5.874;2022-09-24T06:39:39;3.40;;;1.90;;
43919;SDS011;29578;51.946;5.874;2022-09-24T06:42:05;2.95;;;1.80;;
43919;SDS011;29578;51.946;5.874;2022-09-24T06:44:31;4.35;;;1.83;;
43919;SDS011;29578;51.946;5.874;2022-09-24T06:46:58;3.17;;;1.98;;
43919;SDS011;29578;51.946;5.874;2022-09-24T06:49:25;3.17;;;1.70;;
43919;SDS011;29578;51.946;5.874;2022-09-24T06:51:52;3.03;;;1.67;;
43919;SDS011;29578;51.946;5.874;2022-09-24T06:54:19;1.88;;;1.40;;
43919;SDS011;29578;51.946;5.874;2022-09-24T06:56:45;2.67;;;1.60;;
43919;SDS011;29578;51.946;5.874;2022-09-24T06:59:11;2.92;;;1.77;;
43919;SDS011;29578;51.946;5.874;2022-09-24T07:01:37;3.47;;;2.00;;
43919;SDS011;29578;51.946;5.874;2022-09-24T07:04:03;2.90;;;1.58;;
43919;SDS011;29578;51.946;5.874;2022-09-24T07:06:29;4.03;;;1.70;;
43919;SDS011;29578;51.946;5.874;2022-09-24T07:09:14;2.67;;;1.65;;
43919;SDS011;29578;51.946;5.874;2022-09-24T07:11:40;2.38;;;1.58;;
43919;SDS011;29578;51.946;5.874;2022-09-24T07:14:09;2.60;;;1.77;;
43919;SDS011;29578;51.946;5.874;2022-09-24T07:16:34;2.28;;;1.40;;
43919;SDS011;29578;51.946;5.874;2022-09-24T07:19:00;2.30;;;1.67;;
43919;SDS011;29578;51.946;5.874;2022-09-24T07:21:26;2.50;;;1.67;;
43919;SDS011;29578;51.946;5.874;2022-09-24T07:23:52;2.85;;;1.88;;
43919;SDS011;29578;51.946;5.874;2022-09-24T07:26:18;2.70;;;1.80;;
43919;SDS011;29578;51.946;5.874;2022-09-24T07:28:44;2.17;;;1.60;;
43919;SDS011;29578;51.946;5.874;2022-09-24T07:31:10;2.45;;;1.48;;
43919;SDS011;29578;51.946;5.874;2022-09-24T07:33:35;2.63;;;1.77;;
43919;SDS011;29578;51.946;5.874;2022-09-24T07:36:03;2.85;;;1.77;;
43919;SDS011;29578;51.946;5.874;2022-09-24T07:38:31;1.45;;;1.23;;
43919;SDS011;29578;51.946;5.874;2022-09-24T07:40:59;2.35;;;1.50;;
43919;SDS011;29578;51.946;5.874;2022-09-24T07:43:25;2.47;;;1.55;;
43919;SDS011;29578;51.946;5.874;2022-09-24T07:45:51;3.13;;;1.75;;
43919;SDS011;29578;51.946;5.874;2022-09-24T07:48:17;2.42;;;1.70;;
43919;SDS011;29578;51.946;5.874;2022-09-24T07:50:43;2.78;;;1.60;;
43919;SDS011;29578;51.946;5.874;2022-09-24T07:53:09;2.63;;;1.70;;
43919;SDS011;29578;51.946;5.874;2022-09-24T07:55:36;3.05;;;1.98;;
43919;SDS011;29578;51.946;5.874;2022-09-24T07:58:04;3.47;;;1.90;;
43919;SDS011;29578;51.946;5.874;2022-09-24T08:00:31;2.45;;;1.73;;
43919;SDS011;29578;51.946;5.874;2022-09-24T08:02:57;2.33;;;1.70;;
43919;SDS011;29578;51.946;5.874;2022-09-24T08:05:23;2.25;;;1.50;;
43919;SDS011;29578;51.946;5.874;2022-09-24T08:07:50;1.90;;;1.40;;
43919;SDS011;29578;51.946;5.874;2022-09-24T08:10:16;2.90;;;1.60;;
43919;SDS011;29578;51.946;5.874;2022-09-24T08:12:42;2.63;;;1.63;;
43919;SDS011;29578;51.946;5.874;2022-09-24T08:15:08;3.03;;;2.00;;
43919;SDS011;29578;51.946;5.874;2022-09-24T08:17:34;3.17;;;1.98;;
43919;SDS011;29578;51.946;5.874;2022-09-24T08:20:00;2.85;;;1.67;;
43919;SDS011;29578;51.946;5.874;2022-09-24T08:22:26;2.40;;;1.60;;
43919;SDS011;29578;51.946;5.874;2022-09-24T08:24:52;3.08;;;1.90;;
43919;SDS011;29578;51.946;5.874;2022-09-24T08:27:18;3.38;;;1.85;;
43919;SDS011;29578;51.946;5.874;2022-09-24T08:29:45;2.53;;;1.42;;
43919;SDS011;29578;51.946;5.874;2022-09-24T08:32:10;2.92;;;1.70;;
43919;SDS011;29578;51.946;5.874;2022-09-24T08:34:37;2.22;;;1.58;;
43919;SDS011;29578;51.946;5.874;2022-09-24T08:37:04;2.75;;;1.83;;
43919;SDS011;29578;51.946;5.874;2022-09-24T08:39:32;3.03;;;1.75;;
43919;SDS011;29578;51.946;5.874;2022-09-24T08:42:00;2.35;;;1.70;;
43919;SDS011;29578;51.946;5.874;2022-09-24T08:44:35;2.40;;;1.67;;
43919;SDS011;29578;51.946;5.874;2022-09-24T08:47:29;2.60;;;1.85;;
43919;SDS011;29578;51.946;5.874;2022-09-24T08:50:13;2.13;;;1.58;;
43919;SDS011;29578;51.946;5.874;2022-09-24T08:55:41;1.88;;;1.30;;
43919;SDS011;29578;51.946;5.874;2022-09-24T09:01:00;2.92;;;1.73;;
43919;SDS011;29578;51.946;5.874;2022-09-24T09:06:11;2.57;;;1.50;;
43919;SDS011;29578;51.946;5.874;2022-09-24T09:11:37;2.20;;;1.50;;
43919;SDS011;29578;51.946;5.874;2022-09-24T09:14:08;2.72;;;1.80;;
43919;SDS011;29578;51.946;5.874;2022-09-24T09:16:51;2.25;;;1.50;;
43919;SDS011;29578;51.946;5.874;2022-09-24T09:19:25;2.40;;;1.50;;
43919;SDS011;29578;51.946;5.874;2022-09-24T09:24:30;2.33;;;1.40;;
43919;SDS011;29578;51.946;5.874;2022-09-24T09:27:09;1.65;;;1.20;;
43919;SDS011;29578;51.946;5.874;2022-09-24T09:29:39;2.42;;;1.50;;
43919;SDS011;29578;51.946;5.874;2022-09-24T09:32:09;1.90;;;1.30;;
43919;SDS011;29578;51.946;5.874;2022-09-24T09:37:48;3.55;;;1.45;;
43919;SDS011;29578;51.946;5.874;2022-09-24T09:40:32;2.08;;;1.40;;
43919;SDS011;29578;51.946;5.874;2022-09-24T09:43:06;1.45;;;1.23;;
43919;SDS011;29578;51.946;5.874;2022-09-24T09:48:24;2.50;;;1.55;;
43919;SDS011;29578;51.946;5.874;2022-09-24T09:51:00;1.88;;;1.52;;
43919;SDS011;29578;51.946;5.874;2022-09-24T09:53:29;2.80;;;2.00;;
43919;SDS011;29578;51.946;5.874;2022-09-24T09:55:58;3.78;;;2.35;;
43919;SDS011;29578;51.946;5.874;2022-09-24T09:58:30;3.10;;;1.80;;
43919;SDS011;29578;51.946;5.874;2022-09-24T10:01:02;3.05;;;1.60;;
43919;SDS011;29578;51.946;5.874;2022-09-24T10:03:32;2.30;;;1.60;;
43919;SDS011;29578;51.946;5.874;2022-09-24T10:06:13;2.42;;;1.50;;
43919;SDS011;29578;51.946;5.874;2022-09-24T10:08:48;3.03;;;1.80;;
43919;SDS011;29578;51.946;5.874;2022-09-24T10:11:14;2.92;;;1.50;;
43919;SDS011;29578;51.946;5.874;2022-09-24T10:13:41;3.35;;;1.80;;
43919;SDS011;29578;51.946;5.874;2022-09-24T10:16:08;2.65;;;1.70;;
43919;SDS011;29578;51.946;5.874;2022-09-24T10:18:36;2.45;;;1.65;;
43919;SDS011;29578;51.946;5.874;2022-09-24T10:21:08;2.45;;;1.55;;
43919;SDS011;29578;51.946;5.874;2022-09-24T10:23:38;1.77;;;1.35;;
43919;SDS011;29578;51.946;5.874;2022-09-24T10:26:08;2.50;;;1.60;;
43919;SDS011;29578;51.946;5.874;2022-09-24T10:31:35;1.65;;;1.40;;
43919;SDS011;29578;51.946;5.874;2022-09-24T10:34:04;3.50;;;2.00;;
43919;SDS011;29578;51.946;5.874;2022-09-24T10:36:50;1.92;;;1.25;;
43919;SDS011;29578;51.946;5.874;2022-09-24T10:39:22;2.70;;;1.70;;
43919;SDS011;29578;51.946;5.874;2022-09-24T10:41:49;2.42;;;1.40;;
43919;SDS011;29578;51.946;5.874;2022-09-24T10:44:16;2.30;;;1.33;;
43919;SDS011;29578;51.946;5.874;2022-09-24T10:46:46;1.40;;;1.10;;
43919;SDS011;29578;51.946;5.874;2022-09-24T10:49:46;1.92;;;1.25;;
43919;SDS011;29578;51.946;5.874;2022-09-24T10:52:36;2.25;;;1.35;;
43919;SDS011;29578;51.946;5.874;2022-09-24T10:58:12;1.40;;;1.15;;
43919;SDS011;29578;51.946;5.874;2022-09-24T11:01:00;2.40;;;1.58;;
43919;SDS011;29578;51.946;5.874;2022-09-24T11:03:59;2.58;;;1.65;;
43919;SDS011;29578;51.946;5.874;2022-09-24T11:06:47;2.60;;;1.55;;
43919;SDS011;29578;51.946;5.874;2022-09-24T11:18:29;2.50;;;1.60;;
43919;SDS011;29578;51.946;5.874;2022-09-24T11:21:22;2.40;;;1.52;;
43919;SDS011;29578;51.946;5.874;2022-09-24T11:26:59;2.22;;;1.40;;
43919;SDS011;29578;51.946;5.874;2022-09-24T11:32:32;2.13;;;1.40;;
43919;SDS011;29578;51.946;5.874;2022-09-24T11:35:19;2.00;;;1.40;;
43919;SDS011;29578;51.946;5.874;2022-09-24T11:38:09;1.80;;;1.20;;
43919;SDS011;29578;51.946;5.874;2022-09-24T11:40:49;2.50;;;1.70;;
43919;SDS011;29578;51.946;5.874;2022-09-24T11:43:33;1.42;;;1.20;;
43919;SDS011;29578;51.946;5.874;2022-09-24T11:46:27;2.47;;;1.50;;
43919;SDS011;29578;51.946;5.874;2022-09-24T11:52:13;2.67;;;1.70;;
43919;SDS011;29578;51.946;5.874;2022-09-24T11:55:00;2.55;;;1.52;;
43919;SDS011;29578;51.946;5.874;2022-09-24T12:00:15;2.05;;;1.45;;
43919;SDS011;29578;51.946;5.874;2022-09-24T12:02:49;2.13;;;1.35;;
43919;SDS011;29578;51.946;5.874;2022-09-24T12:05:30;3.25;;;1.90;;
43919;SDS011;29578;51.946;5.874;2022-09-24T12:08:02;2.15;;;1.48;;
43919;SDS011;29578;51.946;5.874;2022-09-24T12:10:44;1.77;;;1.40;;
43919;SDS011;29578;51.946;5.874;2022-09-24T12:13:17;2.53;;;1.73;;
43919;SDS011;29578;51.946;5.874;2022-09-24T12:15:57;2.33;;;1.52;;
43919;SDS011;29578;51.946;5.874;2022-09-24T12:18:35;1.63;;;1.20;;
43919;SDS011;29578;51.946;5.874;2022-09-24T12:21:14;2.50;;;1.55;;
43919;SDS011;29578;51.946;5.874;2022-09-24T12:23:45;2.40;;;1.45;;
43919;SDS011;29578;51.946;5.874;2022-09-24T12:26:12;3.15;;;1.90;;
43919;SDS011;29578;51.946;5.874;2022-09-24T12:31:48;2.67;;;1.80;;
43919;SDS011;29578;51.946;5.874;2022-09-24T12:34:55;2.50;;;1.55;;
43919;SDS011;29578;51.946;5.874;2022-09-24T12:37:36;1.75;;;1.25;;
43919;SDS011;29578;51.946;5.874;2022-09-24T12:40:18;2.15;;;1.50;;
43919;SDS011;29578;51.946;5.874;2022-09-24T12:43:03;1.85;;;1.38;;
43919;SDS011;29578;51.946;5.874;2022-09-24T12:45:42;2.38;;;1.33;;
43919;SDS011;29578;51.946;5.874;2022-09-24T12:48:10;2.20;;;1.42;;
43919;SDS011;29578;51.946;5.874;2022-09-24T12:50:40;2.42;;;1.40;;
43919;SDS011;29578;51.946;5.874;2022-09-24T12:53:21;2.47;;;1.70;;
43919;SDS011;29578;51.946;5.874;2022-09-24T12:55:56;1.50;;;1.20;;
43919;SDS011;29578;51.946;5.874;2022-09-24T12:58:26;2.00;;;1.48;;
43919;SDS011;29578;51.946;5.874;2022-09-24T13:01:10;1.77;;;1.38;;
43919;SDS011;29578;51.946;5.874;2022-09-24T13:03:59;2.03;;;1.48;;
43919;SDS011;29578;51.946;5.874;2022-09-24T13:06:36;1.75;;;1.10;;
43919;SDS011;29578;51.946;5.874;2022-09-24T13:09:02;1.90;;;1.40;;
43919;SDS011;29578;51.946;5.874;2022-09-24T13:11:48;1.40;;;1.10;;
43919;SDS011;29578;51.946;5.874;2022-09-24T13:14:38;1.42;;;1.10;;
43919;SDS011;29578;51.946;5.874;2022-09-24T13:17:07;2.55;;;1.45;;
43919;SDS011;29578;51.946;5.874;2022-09-24T13:19:39;1.83;;;1.20;;
43919;SDS011;29578;51.946;5.874;2022-09-24T13:22:20;1.45;;;1.20;;
43919;SDS011;29578;51.946;5.874;2022-09-24T13:24:51;1.23;;;1.02;;
43919;SDS011;29578;51.946;5.874;2022-09-24T13:27:34;1.65;;;1.10;;
43919;SDS011;29578;51.946;5.874;2022-09-24T13:30:04;1.67;;;1.20;;
43919;SDS011;29578;51.946;5.874;2022-09-24T13:35:26;1.13;;;1.00;;
43919;SDS011;29578;51.946;5.874;2022-09-24T13:38:02;2.67;;;1.90;;
43919;SDS011;29578;51.946;5.874;2022-09-24T13:40:34;1.60;;;1.40;;
43919;SDS011;29578;51.946;5.874;2022-09-24T13:43:04;2.40;;;1.67;;
43919;SDS011;29578;51.946;5.874;2022-09-24T13:45:40;2.40;;;1.60;;
43919;SDS011;29578;51.946;5.874;2022-09-24T13:48:18;1.83;;;1.30;;
43919;SDS011;29578;51.946;5.874;2022-09-24T13:50:58;2.65;;;1.73;;
43919;SDS011;29578;51.946;5.874;2022-09-24T13:53:36;1.73;;;1.08;;
43919;SDS011;29578;51.946;5.874;2022-09-24T13:56:21;1.20;;;1.10;;
43919;SDS011;29578;51.946;5.874;2022-09-24T13:58:48;1.33;;;1.00;;
43919;SDS011;29578;51.946;5.874;2022-09-24T14:01:23;1.38;;;1.10;;
43919;SDS011;29578;51.946;5.874;2022-09-24T14:03:54;1.40;;;1.10;;
43919;SDS011;29578;51.946;5.874;2022-09-24T14:11:52;1.30;;;1.13;;
43919;SDS011;29578;51.946;5.874;2022-09-24T14:14:20;1.35;;;1.00;;
43919;SDS011;29578;51.946;5.874;2022-09-24T14:16:49;1.40;;;1.02;;
43919;SDS011;29578;51.946;5.874;2022-09-24T14:19:18;1.88;;;1.40;;
43919;SDS011;29578;51.946;5.874;2022-09-24T14:21:46;1.98;;;1.40;;
43919;SDS011;29578;51.946;5.874;2022-09-24T14:24:21;1.52;;;1.27;;
43919;SDS011;29578;51.946;5.874;2022-09-24T14:26:54;1.80;;;1.27;;
43919;SDS011;29578;51.946;5.874;2022-09-24T14:29:32;1.50;;;1.10;;
43919;SDS011;29578;51.946;5.874;2022-09-24T14:32:05;1.98;;;1.08;;
43919;SDS011;29578;51.946;5.874;2022-09-24T14:34:39;1.10;;;1.00;;
43919;SDS011;29578;51.946;5.874;2022-09-24T14:37:10;1.58;;;1.20;;
43919;SDS011;29578;51.946;5.874;2022-09-24T14:39:42;1.00;;;0.90;;
43919;SDS011;29578;51.946;5.874;2022-09-24T14:42:12;1.65;;;1.15;;
43919;SDS011;29578;51.946;5.874;2022-09-24T14:44:47;1.75;;;1.30;;
43919;SDS011;29578;51.946;5.874;2022-09-24T14:47:30;1.60;;;1.10;;
43919;SDS011;29578;51.946;5.874;2022-09-24T14:49:57;2.40;;;1.40;;
43919;SDS011;29578;51.946;5.874;2022-09-24T14:52:26;1.75;;;1.20;;
43919;SDS011;29578;51.946;5.874;2022-09-24T14:54:59;1.33;;;0.93;;
43919;SDS011;29578;51.946;5.874;2022-09-24T14:57:46;1.50;;;1.10;;
43919;SDS011;29578;51.946;5.874;2022-09-24T15:00:18;0.90;;;0.73;;
43919;SDS011;29578;51.946;5.874;2022-09-24T15:02:47;1.05;;;0.80;;
43919;SDS011;29578;51.946;5.874;2022-09-24T15:05:16;1.02;;;0.90;;
43919;SDS011;29578;51.946;5.874;2022-09-24T15:07:49;1.88;;;1.10;;
43919;SDS011;29578;51.946;5.874;2022-09-24T15:10:17;1.60;;;0.73;;
43919;SDS011;29578;51.946;5.874;2022-09-24T15:12:46;0.82;;;0.70;;
43919;SDS011;29578;51.946;5.874;2022-09-24T15:17:57;0.95;;;0.70;;
43919;SDS011;29578;51.946;5.874;2022-09-24T15:20:23;0.85;;;0.65;;
43919;SDS011;29578;51.946;5.874;2022-09-24T15:23:02;0.80;;;0.70;;
43919;SDS011;29578;51.946;5.874;2022-09-24T15:26:19;0.88;;;0.43;;
43919;SDS011;29578;51.946;5.874;2022-09-24T15:32:00;0.40;;;0.40;;
43919;SDS011;29578;51.946;5.874;2022-09-24T15:34:46;0.50;;;0.40;;
43919;SDS011;29578;51.946;5.874;2022-09-24T15:37:44;0.30;;;0.30;;
43919;SDS011;29578;51.946;5.874;2022-09-24T15:40:22;0.50;;;0.50;;
43919;SDS011;29578;51.946;5.874;2022-09-24T15:42:54;0.32;;;0.30;;
43919;SDS011;29578;51.946;5.874;2022-09-24T15:45:22;0.30;;;0.30;;
43919;SDS011;29578;51.946;5.874;2022-09-24T15:47:49;0.40;;;0.40;;
43919;SDS011;29578;51.946;5.874;2022-09-24T15:50:17;0.30;;;0.30;;
43919;SDS011;29578;51.946;5.874;2022-09-24T15:52:47;0.28;;;0.22;;
43919;SDS011;29578;51.946;5.874;2022-09-24T15:55:18;0.30;;;0.30;;
43919;SDS011;29578;51.946;5.874;2022-09-24T15:57:45;0.40;;;0.40;;
43919;SDS011;29578;51.946;5.874;2022-09-24T16:00:14;0.30;;;0.30;;
43919;SDS011;29578;51.946;5.874;2022-09-24T16:02:57;0.30;;;0.30;;
43919;SDS011;29578;51.946;5.874;2022-09-24T16:06:10;0.57;;;0.20;;
43919;SDS011;29578;51.946;5.874;2022-09-24T16:12:19;1.08;;;0.30;;
43919;SDS011;29578;51.946;5.874;2022-09-24T16:25:52;0.98;;;0.32;;
43919;SDS011;29578;51.946;5.874;2022-09-24T16:28:25;0.68;;;0.30;;
43919;SDS011;29578;51.946;5.874;2022-09-24T16:30:52;0.25;;;0.20;;
43919;SDS011;29578;51.946;5.874;2022-09-24T16:33:18;0.52;;;0.30;;
43919;SDS011;29578;51.946;5.874;2022-09-24T16:35:44;0.28;;;0.28;;
43919;SDS011;29578;51.946;5.874;2022-09-24T16:38:11;0.38;;;0.30;;
43919;SDS011;29578;51.946;5.874;2022-09-24T16:40:37;0.40;;;0.40;;
43919;SDS011;29578;51.946;5.874;2022-09-24T16:43:03;0.75;;;0.30;;
43919;SDS011;29578;51.946;5.874;2022-09-24T16:45:30;0.80;;;0.30;;
43919;SDS011;29578;51.946;5.874;2022-09-24T16:47:57;0.32;;;0.22;;